Time;durP1;ratioP1;P1;durP2;ratioP2;P2;SDS_P1;SDS_P2;PMS_P1;PMS_P2;Temp;Humidity;BMP_temperature;BMP_pressure;BME280_temperature;BME280_humidity;BME280_pressure;Samples;Min_cycle;Max_cycle;Signal;HPM_P1;HPM_P2
2024/03/27 00:00:59;;;;;;;1.95;0.93;;;11.50;54.80;;;;;;5033712;28;20414;-78
2024/03/27 00:03:27;;;;;;;2.72;1.00;;;11.40;55.10;;;;;;5033928;28;20068;-78
2024/03/27 00:05:53;;;;;;;2.13;1.20;;;11.30;54.60;;;;;;5033709;28;20064;-79
2024/03/27 00:08:20;;;;;;;3.78;1.10;;;11.30;55.30;;;;;;5031190;28;20048;-79
2024/03/27 00:10:46;;;;;;;3.35;0.90;;;11.20;55.50;;;;;;5034016;28;20049;-78
2024/03/27 00:13:12;;;;;;;3.30;1.10;;;11.20;55.90;;;;;;5048440;28;20048;-79
2024/03/27 00:15:38;;;;;;;3.17;1.10;;;11.10;56.10;;;;;;5033555;28;20049;-79
2024/03/27 00:18:04;;;;;;;2.40;1.50;;;11.10;55.60;;;;;;5033431;28;20075;-78
2024/03/27 00:20:30;;;;;;;5.63;1.85;;;11.00;56.50;;;;;;5035397;28;20057;-78
2024/03/27 00:22:56;;;;;;;4.05;2.05;;;10.90;56.80;;;;;;5053804;28;20122;-79
2024/03/27 00:25:24;;;;;;;5.13;1.58;;;10.90;56.60;;;;;;5054000;28;20053;-79
2024/03/27 00:27:50;;;;;;;3.25;1.60;;;10.80;57.10;;;;;;5037200;28;20053;-78
2024/03/27 00:30:17;;;;;;;3.80;1.50;;;10.80;57.70;;;;;;5054113;28;20468;-79
2024/03/27 00:32:43;;;;;;;3.85;2.03;;;10.70;58.40;;;;;;5053836;28;20064;-78
2024/03/27 00:35:11;;;;;;;2.88;1.50;;;10.60;58.70;;;;;;5037160;28;20430;-78
2024/03/27 00:37:39;;;;;;;3.25;1.42;;;10.50;59.30;;;;;;5053370;28;20076;-77
2024/03/27 00:40:08;;;;;;;2.25;1.35;;;10.50;59.20;;;;;;5053164;28;20069;-80
2024/03/27 00:42:39;;;;;;;4.30;1.70;;;10.50;59.00;;;;;;5036749;28;20049;-79
2024/03/27 00:45:08;;;;;;;2.70;1.50;;;10.40;59.40;;;;;;5052142;28;20060;-78
2024/03/27 00:47:36;;;;;;;1.85;1.08;;;10.40;59.30;;;;;;5034278;28;20052;-79
2024/03/27 00:50:02;;;;;;;3.85;1.40;;;10.30;59.30;;;;;;5036768;28;20049;-79
2024/03/27 00:52:28;;;;;;;2.40;1.30;;;10.30;59.60;;;;;;5036391;28;20071;-78
2024/03/27 00:54:54;;;;;;;2.30;1.42;;;10.20;60.30;;;;;;5036370;28;20053;-79
2024/03/27 00:57:20;;;;;;;2.92;1.00;;;10.20;59.80;;;;;;5053032;28;20121;-78
2024/03/27 00:59:48;;;;;;;1.25;0.98;;;10.20;59.60;;;;;;5036691;28;20060;-78
2024/03/27 01:02:14;;;;;;;3.25;1.33;;;10.20;60.00;;;;;;5036362;28;20045;-79
2024/03/27 01:04:40;;;;;;;1.73;1.00;;;10.20;60.80;;;;;;5036500;28;20045;-79
2024/03/27 01:07:06;;;;;;;1.55;1.00;;;10.10;60.90;;;;;;5035804;28;20504;-79
2024/03/27 01:09:32;;;;;;;3.15;1.08;;;10.10;61.20;;;;;;5052699;28;20045;-78
2024/03/27 01:11:58;;;;;;;5.63;1.45;;;10.00;61.80;;;;;;5036022;28;20045;-78
2024/03/27 01:14:25;;;;;;;2.20;1.10;;;10.00;61.30;;;;;;5052830;28;20095;-79
2024/03/27 01:16:51;;;;;;;7.93;1.50;;;9.90;62.90;;;;;;5036022;28;20111;-78
2024/03/27 01:19:19;;;;;;;3.00;1.35;;;9.90;63.80;;;;;;5052977;28;20080;-79
2024/03/27 01:21:44;;;;;;;3.00;1.20;;;9.90;63.40;;;;;;5035816;28;20063;-79
2024/03/27 01:24:13;;;;;;;3.03;1.42;;;9.90;63.40;;;;;;5052764;28;20060;-79
2024/03/27 01:26:41;;;;;;;2.85;1.80;;;9.80;62.90;;;;;;5035715;28;20057;-78
2024/03/27 01:29:07;;;;;;;3.10;1.50;;;9.80;63.70;;;;;;5035883;28;20052;-79
2024/03/27 01:31:33;;;;;;;2.25;1.50;;;9.80;64.50;;;;;;5025439;28;20125;-79
2024/03/27 01:33:59;;;;;;;1.80;1.50;;;9.70;63.90;;;;;;5036123;28;20061;-79
2024/03/27 01:36:25;;;;;;;2.95;1.67;;;9.60;64.60;;;;;;5052683;28;20053;-78
2024/03/27 01:38:51;;;;;;;3.50;1.80;;;9.50;66.00;;;;;;5052303;28;20434;-78
2024/03/27 01:41:19;;;;;;;6.15;1.90;;;9.50;65.30;;;;;;5033150;28;20049;-77
2024/03/27 01:43:45;;;;;;;7.40;1.95;;;9.40;65.70;;;;;;5052831;28;20064;-77
2024/03/27 01:46:12;;;;;;;4.82;2.08;;;9.40;66.10;;;;;;5035921;28;20188;-77
2024/03/27 01:48:38;;;;;;;3.58;1.80;;;9.30;66.10;;;;;;5051571;28;20049;-78
2024/03/27 01:51:06;;;;;;;3.45;1.60;;;9.30;66.90;;;;;;5035376;28;20106;-78
2024/03/27 01:53:32;;;;;;;4.50;1.90;;;9.30;66.80;;;;;;5031111;28;20053;-77
2024/03/27 01:55:59;;;;;;;3.88;1.95;;;9.20;67.40;;;;;;5035495;28;20473;-78
2024/03/27 01:58:25;;;;;;;3.80;1.55;;;9.20;67.30;;;;;;5035442;28;20488;-78
2024/03/27 02:00:51;;;;;;;2.92;1.70;;;9.20;67.70;;;;;;5035646;28;20052;-78
2024/03/27 02:03:18;;;;;;;4.47;1.80;;;9.20;67.40;;;;;;5035333;28;20397;-78
2024/03/27 02:05:45;;;;;;;2.47;1.50;;;9.20;68.10;;;;;;5035181;28;20481;-78
2024/03/27 02:08:11;;;;;;;2.65;1.77;;;9.10;67.90;;;;;;5034763;28;20461;-78
2024/03/27 02:10:41;;;;;;;8.75;1.92;;;9.10;67.80;;;;;;5035327;28;20057;-77
2024/03/27 02:13:07;;;;;;;3.00;1.90;;;9.10;68.50;;;;;;5055377;28;20465;-78
2024/03/27 02:15:33;;;;;;;2.20;1.40;;;9.10;68.70;;;;;;5035017;28;20122;-77
2024/03/27 02:18:01;;;;;;;3.72;1.63;;;9.10;69.40;;;;;;5027763;28;20053;-78
2024/03/27 02:20:27;;;;;;;6.13;1.63;;;9.00;69.00;;;;;;5051729;28;20061;-78
2024/03/27 02:23:02;;;;;;;3.67;1.85;;;8.90;69.70;;;;;;5034580;28;20049;-78
2024/03/27 02:26:10;;;;;;;6.80;2.30;;;8.80;70.20;;;;;;5031320;28;20387;-77
2024/03/27 02:28:36;;;;;;;6.68;2.38;;;8.80;70.00;;;;;;5034921;28;20056;-77
2024/03/27 02:31:04;;;;;;;4.97;2.03;;;8.70;69.70;;;;;;5034739;28;20127;-77
2024/03/27 02:33:32;;;;;;;5.20;2.00;;;8.70;70.50;;;;;;5051428;28;20052;-78
2024/03/27 02:35:58;;;;;;;3.08;1.60;;;8.60;71.40;;;;;;5021403;28;20053;-78
2024/03/27 02:38:27;;;;;;;2.20;1.35;;;8.60;72.70;;;;;;5034441;28;20367;-77
2024/03/27 02:40:55;;;;;;;4.13;1.85;;;8.60;72.90;;;;;;5033622;28;20049;-77
2024/03/27 02:43:21;;;;;;;6.20;1.60;;;8.50;72.10;;;;;;5048992;28;20377;-77
2024/03/27 02:45:47;;;;;;;8.73;1.80;;;8.50;73.10;;;;;;5051063;28;20064;-78
2024/03/27 02:48:14;;;;;;;3.22;1.85;;;8.50;73.10;;;;;;5026371;28;20461;-77
2024/03/27 02:50:43;;;;;;;2.05;1.63;;;8.40;73.10;;;;;;5034714;28;20393;-77
2024/03/27 02:53:09;;;;;;;4.63;2.22;;;8.30;73.90;;;;;;5027949;28;20058;-77
2024/03/27 02:55:35;;;;;;;4.57;2.00;;;8.20;74.30;;;;;;5034794;28;20072;-77
2024/03/27 02:58:00;;;;;;;5.78;2.03;;;8.20;74.20;;;;;;5034906;28;20461;-77
2024/03/27 03:00:26;;;;;;;4.53;2.10;;;8.20;74.40;;;;;;5048313;28;20412;-77
2024/03/27 03:02:52;;;;;;;4.07;1.90;;;8.10;74.80;;;;;;5051490;28;20057;-78
2024/03/27 03:05:18;;;;;;;5.60;2.03;;;8.10;75.70;;;;;;5051142;28;20067;-78
2024/03/27 03:07:46;;;;;;;4.22;1.95;;;8.10;76.10;;;;;;5048238;28;20057;-78
2024/03/27 03:10:13;;;;;;;3.88;1.80;;;8.10;76.30;;;;;;5047955;28;20371;-77
2024/03/27 03:12:39;;;;;;;3.90;2.03;;;8.00;75.90;;;;;;5048595;28;20111;-78
2024/03/27 03:15:05;;;;;;;3.40;1.88;;;8.00;76.10;;;;;;5030215;28;20061;-78
2024/03/27 03:17:31;;;;;;;5.18;2.53;;;7.90;76.60;;;;;;5049474;28;20392;-78
2024/03/27 03:19:59;;;;;;;4.40;2.30;;;7.90;77.10;;;;;;5034009;28;20128;-78
2024/03/27 03:22:25;;;;;;;6.00;2.25;;;7.90;77.70;;;;;;5050424;28;20056;-77
2024/03/27 03:24:51;;;;;;;3.63;1.90;;;7.90;77.70;;;;;;5034057;28;20059;-78
2024/03/27 03:27:17;;;;;;;4.60;2.50;;;7.80;78.90;;;;;;5034041;28;20539;-78
2024/03/27 03:29:43;;;;;;;5.85;2.38;;;7.80;78.50;;;;;;5049300;28;20060;-77
2024/03/27 03:32:10;;;;;;;5.05;2.22;;;7.70;79.70;;;;;;5050174;28;20385;-77
2024/03/27 03:34:36;;;;;;;7.43;2.58;;;7.70;80.20;;;;;;5033801;28;20428;-77
2024/03/27 03:37:01;;;;;;;5.55;2.80;;;7.70;80.40;;;;;;5033371;28;20056;-77
2024/03/27 03:39:27;;;;;;;7.50;2.45;;;7.70;80.90;;;;;;5050520;28;20056;-78
2024/03/27 03:41:54;;;;;;;7.65;2.90;;;7.60;81.40;;;;;;5034236;28;20364;-77
2024/03/27 03:44:20;;;;;;;5.50;2.50;;;7.60;81.50;;;;;;5050287;28;20076;-78
2024/03/27 03:46:46;;;;;;;3.78;2.03;;;7.50;81.10;;;;;;5033919;28;20376;-77
2024/03/27 03:49:12;;;;;;;4.47;2.33;;;7.50;82.10;;;;;;5049556;28;20076;-77
2024/03/27 03:51:42;;;;;;;5.55;2.60;;;7.40;82.80;;;;;;5033706;28;20378;-77
2024/03/27 03:54:08;;;;;;;4.63;2.20;;;7.40;83.20;;;;;;5052045;28;20452;-77
2024/03/27 03:56:34;;;;;;;5.30;2.33;;;7.40;83.00;;;;;;5054044;28;20049;-77
2024/03/27 03:59:00;;;;;;;4.15;2.10;;;7.30;84.50;;;;;;5037860;28;20056;-77
2024/03/27 04:01:29;;;;;;;6.20;2.47;;;7.30;84.90;;;;;;5037714;28;20061;-77
2024/03/27 04:03:57;;;;;;;3.58;1.98;;;7.30;85.40;;;;;;5053928;28;20083;-77
2024/03/27 04:06:26;;;;;;;7.07;2.25;;;7.20;86.40;;;;;;5037694;28;20061;-77
2024/03/27 04:08:52;;;;;;;3.92;2.20;;;7.20;86.60;;;;;;5054206;28;20049;-77
2024/03/27 04:11:20;;;;;;;3.90;2.45;;;7.20;86.90;;;;;;5037403;28;20056;-77
2024/03/27 04:13:46;;;;;;;3.10;2.35;;;7.10;88.60;;;;;;5053842;28;20053;-77
2024/03/27 04:16:15;;;;;;;7.88;2.65;;;7.10;88.50;;;;;;5037433;28;20114;-77
2024/03/27 04:18:43;;;;;;;4.22;2.00;;;7.10;89.50;;;;;;5037155;28;20067;-77
2024/03/27 04:21:09;;;;;;;3.78;2.55;;;7.00;88.70;;;;;;5036972;28;20053;-78
2024/03/27 04:23:35;;;;;;;4.82;2.38;;;7.00;90.00;;;;;;5037342;28;20111;-78
2024/03/27 04:26:01;;;;;;;5.00;2.20;;;6.90;90.40;;;;;;5037157;28;20122;-77
2024/03/27 04:28:27;;;;;;;5.57;2.53;;;6.90;90.20;;;;;;5053511;28;20061;-78
2024/03/27 04:30:55;;;;;;;5.13;2.10;;;6.90;89.30;;;;;;5037333;28;20098;-77
2024/03/27 04:33:21;;;;;;;7.72;2.33;;;6.80;89.60;;;;;;5053498;28;20045;-77
2024/03/27 04:35:47;;;;;;;5.90;2.80;;;6.80;90.30;;;;;;5037070;28;20060;-77
2024/03/27 04:38:16;;;;;;;3.53;2.40;;;6.80;91.10;;;;;;5053238;28;20392;-78
2024/03/27 04:40:45;;;;;;;5.60;2.53;;;6.80;91.30;;;;;;5035089;28;20110;-77
2024/03/27 04:43:11;;;;;;;6.30;2.97;;;6.80;92.00;;;;;;5053640;28;20057;-77
2024/03/27 04:45:38;;;;;;;4.28;2.72;;;6.80;91.90;;;;;;5037137;28;20385;-77
2024/03/27 04:48:04;;;;;;;5.40;2.92;;;6.70;92.30;;;;;;5053692;28;20057;-77
2024/03/27 04:50:31;;;;;;;3.65;2.50;;;6.70;92.30;;;;;;5053506;28;20045;-77
2024/03/27 04:52:59;;;;;;;3.70;2.40;;;6.70;92.30;;;;;;5051239;28;20084;-77
2024/03/27 04:55:27;;;;;;;6.43;2.45;;;6.70;92.40;;;;;;5036945;28;20159;-77
2024/03/27 04:57:53;;;;;;;8.57;2.92;;;6.70;92.30;;;;;;5036353;28;20053;-77
2024/03/27 05:00:21;;;;;;;4.82;2.63;;;6.60;92.70;;;;;;5049575;28;20391;-77
2024/03/27 05:02:47;;;;;;;5.13;2.90;;;6.60;94.30;;;;;;5053121;28;20056;-77
2024/03/27 05:05:14;;;;;;;4.63;2.97;;;6.60;93.90;;;;;;5051831;28;20056;-77
2024/03/27 05:07:40;;;;;;;4.28;2.80;;;6.60;94.50;;;;;;5036199;28;20053;-77
2024/03/27 05:10:07;;;;;;;6.65;3.15;;;6.60;95.30;;;;;;5036764;28;20057;-77
2024/03/27 05:12:33;;;;;;;4.65;2.88;;;6.60;95.00;;;;;;5053016;28;20385;-77
2024/03/27 05:14:59;;;;;;;8.88;2.92;;;6.50;95.20;;;;;;5036552;28;20049;-77
2024/03/27 05:17:25;;;;;;;14.32;5.85;;;6.60;94.60;;;;;;5052873;28;20099;-77
2024/03/27 05:19:51;;;;;;;23.92;8.45;;;6.50;95.40;;;;;;5036272;28;20052;-77
2024/03/27 05:22:26;;;;;;;20.90;7.30;;;6.60;94.60;;;;;;5052500;28;20469;-77
2024/03/27 05:24:52;;;;;;;8.70;4.43;;;6.50;94.60;;;;;;5052291;28;20060;-77
2024/03/27 05:27:18;;;;;;;11.32;3.70;;;6.50;94.30;;;;;;5051667;28;20052;-77
2024/03/27 05:29:44;;;;;;;9.43;3.70;;;6.50;95.20;;;;;;5032798;28;20481;-76
2024/03/27 05:32:10;;;;;;;12.93;4.25;;;6.50;94.90;;;;;;5036361;28;20045;-76
2024/03/27 05:34:36;;;;;;;8.15;3.28;;;6.60;95.10;;;;;;5035970;28;20048;-77
2024/03/27 05:37:02;;;;;;;9.63;4.05;;;6.60;95.10;;;;;;5035426;28;20060;-77
2024/03/27 05:39:28;;;;;;;5.25;3.30;;;6.60;95.00;;;;;;5034760;28;20107;-77
2024/03/27 05:41:56;;;;;;;6.95;3.75;;;6.60;95.20;;;;;;5036170;28;20140;-77
2024/03/27 05:44:24;;;;;;;6.53;3.40;;;6.60;95.10;;;;;;5035920;28;20061;-77
2024/03/27 05:46:50;;;;;;;11.60;3.42;;;6.70;95.30;;;;;;5035581;28;20049;-76
2024/03/27 05:49:16;;;;;;;7.57;3.17;;;6.70;95.50;;;;;;5052574;28;20045;-76
2024/03/27 05:51:42;;;;;;;8.88;3.22;;;6.80;94.90;;;;;;5052122;28;20080;-78
2024/03/27 05:54:10;;;;;;;8.90;3.58;;;6.80;94.90;;;;;;5035764;28;20052;-78
2024/03/27 05:56:35;;;;;;;8.60;3.53;;;6.90;95.20;;;;;;5033822;28;20048;-78
2024/03/27 05:59:04;;;;;;;7.60;3.65;;;6.90;94.90;;;;;;5052162;28;20114;-78
2024/03/27 06:01:30;;;;;;;9.88;3.17;;;7.00;94.70;;;;;;5035201;28;20083;-78
2024/03/27 06:03:58;;;;;;;8.63;3.33;;;7.00;94.60;;;;;;5032256;28;20057;-78
2024/03/27 06:06:24;;;;;;;11.05;2.95;;;7.10;94.90;;;;;;5049038;28;20056;-77
2024/03/27 06:08:53;;;;;;;3.95;2.90;;;7.10;94.40;;;;;;5052252;28;20387;-78
2024/03/27 06:11:18;;;;;;;6.18;3.13;;;7.20;94.40;;;;;;5034694;28;20045;-78
2024/03/27 06:13:48;;;;;;;6.20;3.22;;;7.30;94.80;;;;;;5034921;28;20422;-78
2024/03/27 06:16:14;;;;;;;7.35;3.17;;;7.40;94.70;;;;;;5035165;28;20457;-77
2024/03/27 06:18:44;;;;;;;10.57;3.75;;;7.50;94.30;;;;;;5034007;28;20060;-78
2024/03/27 06:21:10;;;;;;;6.88;3.58;;;7.60;94.00;;;;;;5035116;28;20049;-78
2024/03/27 06:23:36;;;;;;;6.82;3.60;;;7.70;94.20;;;;;;5051919;28;20052;-78
2024/03/27 06:26:02;;;;;;;15.13;3.22;;;7.80;93.90;;;;;;5052133;28;20053;-78
2024/03/27 06:28:31;;;;;;;5.57;3.15;;;8.00;93.60;;;;;;5034525;28;20393;-78
2024/03/27 06:31:01;;;;;;;6.20;3.05;;;8.10;93.20;;;;;;5030902;28;20500;-78
2024/03/27 06:33:27;;;;;;;7.75;3.13;;;8.30;93.60;;;;;;5034798;28;20057;-78
2024/03/27 06:35:53;;;;;;;7.03;3.45;;;8.50;93.30;;;;;;5035069;28;20056;-79
2024/03/27 06:38:23;;;;;;;9.35;3.70;;;8.60;92.90;;;;;;5036847;28;20056;-78
2024/03/27 06:40:49;;;;;;;13.20;4.40;;;8.80;92.60;;;;;;5054991;28;20049;-78
2024/03/27 06:43:16;;;;;;;5.75;3.08;;;8.90;91.70;;;;;;5039524;28;20059;-79
2024/03/27 06:45:42;;;;;;;8.13;2.92;;;9.10;90.80;;;;;;5032888;28;20049;-78
2024/03/27 06:48:09;;;;;;;6.15;2.92;;;9.20;90.20;;;;;;5037479;28;20052;-79
2024/03/27 06:50:35;;;;;;;5.43;2.90;;;9.40;90.20;;;;;;5052462;28;20053;-79
2024/03/27 06:53:01;;;;;;;5.57;2.90;;;9.50;89.30;;;;;;5037923;28;20106;-79
2024/03/27 06:55:27;;;;;;;4.15;2.40;;;9.70;88.20;;;;;;5037708;28;20059;-80
2024/03/27 06:57:53;;;;;;;8.90;2.80;;;9.80;87.20;;;;;;5037979;28;20053;-80
2024/03/27 07:00:19;;;;;;;6.53;2.38;;;10.00;87.00;;;;;;5038862;28;20465;-80
2024/03/27 07:02:49;;;;;;;8.52;2.72;;;10.20;85.10;;;;;;5038110;28;20048;-79
2024/03/27 07:05:16;;;;;;;6.72;2.70;;;10.40;84.70;;;;;;5054529;28;20396;-80
2024/03/27 07:07:42;;;;;;;3.33;1.90;;;10.50;84.30;;;;;;5037912;28;20056;-79
2024/03/27 07:10:09;;;;;;;4.70;2.45;;;10.70;82.50;;;;;;5038200;28;20056;-80
2024/03/27 07:12:35;;;;;;;5.63;2.50;;;10.80;80.80;;;;;;5028732;28;20067;-80
2024/03/27 07:15:01;;;;;;;9.48;2.70;;;10.90;79.10;;;;;;5052928;28;20083;-80
2024/03/27 07:17:32;;;;;;;4.80;2.58;;;11.00;78.60;;;;;;5035060;28;20053;-81
2024/03/27 07:19:59;;;;;;;3.50;2.25;;;11.20;77.80;;;;;;5053886;28;20060;-79
2024/03/27 07:22:25;;;;;;;4.25;2.17;;;11.30;76.10;;;;;;5036624;28;20061;-80
2024/03/27 07:24:51;;;;;;;4.80;2.42;;;11.50;76.70;;;;;;5037383;28;20066;-80
2024/03/27 07:27:18;;;;;;;6.05;2.70;;;11.70;76.80;;;;;;5054385;28;20381;-80
2024/03/27 07:29:44;;;;;;;12.18;2.33;;;11.90;76.70;;;;;;5037389;28;20052;-80
2024/03/27 07:32:10;;;;;;;3.25;1.35;;;12.20;75.20;;;;;;5036969;28;20048;-80
2024/03/27 07:34:36;;;;;;;5.82;1.88;;;12.50;70.80;;;;;;5037782;28;20053;-80
2024/03/27 07:37:02;;;;;;;2.63;0.82;;;12.80;70.00;;;;;;5037552;28;20049;-81
2024/03/27 07:39:29;;;;;;;3.60;0.70;;;13.70;60.70;;;;;;5035385;28;20059;-80
2024/03/27 07:41:55;;;;;;;1.95;0.60;;;14.60;55.90;;;;;;5037792;28;20134;-79
2024/03/27 07:44:21;;;;;;;3.10;0.57;;;15.30;54.90;;;;;;5035915;28;20052;-79
2024/03/27 07:46:47;;;;;;;3.60;0.88;;;15.60;53.20;;;;;;5055055;28;20118;-81
2024/03/27 07:49:13;;;;;;;1.83;0.40;;;16.50;50.40;;;;;;5053410;28;20056;-79
2024/03/27 07:51:39;;;;;;;2.65;0.28;;;17.00;48.50;;;;;;5052281;28;20051;-79
2024/03/27 07:54:07;;;;;;;0.90;0.40;;;17.40;48.30;;;;;;5038002;28;20400;-79
2024/03/27 07:56:33;;;;;;;3.30;0.60;;;17.60;48.10;;;;;;5034418;28;20053;-81
2024/03/27 07:58:59;;;;;;;3.03;0.30;;;17.90;46.90;;;;;;5064938;28;20122;-81
2024/03/27 08:01:25;;;;;;;5.38;0.63;;;18.20;46.60;;;;;;5034555;28;20060;-80
2024/03/27 08:03:51;;;;;;;2.95;0.50;;;18.50;45.30;;;;;;5036095;28;20056;-81
2024/03/27 08:06:20;;;;;;;4.28;0.47;;;18.80;44.60;;;;;;5037649;28;20063;-81
2024/03/27 08:08:45;;;;;;;2.05;0.40;;;19.00;43.30;;;;;;5037870;28;20091;-80
2024/03/27 08:11:11;;;;;;;2.13;0.60;;;19.20;42.70;;;;;;5036923;28;20527;-81
2024/03/27 08:13:38;;;;;;;1.88;0.45;;;19.30;42.50;;;;;;5063645;28;20052;-82
2024/03/27 08:16:05;;;;;;;3.78;0.73;;;19.50;42.10;;;;;;5036343;28;20067;-79
2024/03/27 08:18:45;;;;;;;5.35;0.52;;;19.60;41.50;;;;;;5037381;28;20045;-80
2024/03/27 08:21:12;;;;;;;2.90;0.60;;;19.70;41.20;;;;;;5034717;28;20056;-77
2024/03/27 08:23:38;;;;;;;7.95;1.40;;;19.90;41.40;;;;;;5037056;28;20048;-77
2024/03/27 08:26:04;;;;;;;5.63;1.85;;;20.10;40.30;;;;;;5046675;28;20106;-77
2024/03/27 08:28:30;;;;;;;2.38;0.30;;;20.20;40.50;;;;;;5052816;28;20048;-77
2024/03/27 08:30:59;;;;;;;4.25;0.82;;;20.40;40.10;;;;;;5035561;28;20063;-76
2024/03/27 08:33:30;;;;;;;6.63;1.20;;;20.30;39.50;;;;;;5037186;28;20489;-77
2024/03/27 08:35:58;;;;;;;3.35;0.95;;;20.40;40.10;;;;;;5034707;28;20053;-77
2024/03/27 08:38:24;;;;;;;4.10;1.25;;;20.40;39.90;;;;;;5052429;28;20444;-77
2024/03/27 08:40:53;;;;;;;1.58;0.50;;;20.50;39.50;;;;;;5037140;28;20052;-78
2024/03/27 08:43:19;;;;;;;4.10;0.95;;;20.50;39.20;;;;;;5039011;28;20119;-78
2024/03/27 08:45:46;;;;;;;1.73;0.60;;;20.70;39.10;;;;;;5056840;28;20100;-78
2024/03/27 08:48:12;;;;;;;6.15;0.77;;;20.70;38.70;;;;;;5051885;28;20056;-78
2024/03/27 08:50:41;;;;;;;3.63;0.50;;;20.80;38.20;;;;;;5055171;28;20063;-81
2024/03/27 08:53:07;;;;;;;1.83;0.60;;;20.80;38.10;;;;;;5054224;28;20049;-78
2024/03/27 08:55:40;;;;;;;2.95;0.45;;;20.90;38.30;;;;;;5038964;28;20048;-78
2024/03/27 08:58:07;;;;;;;1.65;0.35;;;21.00;38.00;;;;;;5049444;28;20056;-78
2024/03/27 09:00:37;;;;;;;5.82;0.50;;;21.10;37.90;;;;;;5056406;28;20067;-78
2024/03/27 09:03:04;;;;;;;4.15;0.80;;;21.10;37.80;;;;;;5036455;28;20044;-78
2024/03/27 09:05:33;;;;;;;7.57;0.60;;;21.20;37.80;;;;;;5056754;28;20060;-78
2024/03/27 09:07:59;;;;;;;3.50;0.52;;;21.40;38.30;;;;;;5038753;28;20044;-78
2024/03/27 09:10:28;;;;;;;4.00;0.70;;;21.60;37.60;;;;;;5056357;28;20070;-78
2024/03/27 09:12:54;;;;;;;3.90;0.70;;;21.80;37.20;;;;;;5039669;28;20044;-78
2024/03/27 09:15:19;;;;;;;3.35;0.57;;;22.10;37.00;;;;;;5038237;28;20542;-79
2024/03/27 09:17:45;;;;;;;2.15;0.52;;;22.30;36.20;;;;;;5040819;28;20057;-78
2024/03/27 09:20:11;;;;;;;6.80;0.70;;;22.40;35.60;;;;;;5044396;28;20071;-78
2024/03/27 09:22:37;;;;;;;5.82;0.93;;;22.50;35.10;;;;;;5037579;28;20434;-78
2024/03/27 09:25:06;;;;;;;3.53;0.80;;;22.60;35.70;;;;;;5037300;28;20056;-78
2024/03/27 09:27:35;;;;;;;3.58;0.60;;;22.80;34.90;;;;;;5044786;28;20071;-79
2024/03/27 09:30:01;;;;;;;2.10;0.50;;;22.90;35.40;;;;;;5035494;28;20057;-78
2024/03/27 09:32:27;;;;;;;2.72;0.47;;;22.80;34.80;;;;;;5039248;28;20076;-79
2024/03/27 09:34:55;;;;;;;3.03;0.70;;;23.00;34.90;;;;;;5041612;28;20394;-78
2024/03/27 09:37:21;;;;;;;3.50;0.55;;;23.10;34.00;;;;;;5039127;28;20052;-79
2024/03/27 09:39:49;;;;;;;4.13;0.60;;;23.10;34.00;;;;;;5065164;28;20083;-78
2024/03/27 09:42:21;;;;;;;4.00;0.60;;;23.10;34.30;;;;;;5055418;28;20060;-78
2024/03/27 09:44:47;;;;;;;2.08;0.50;;;23.60;33.40;;;;;;5037304;28;20053;-79
2024/03/27 09:47:14;;;;;;;5.30;0.57;;;24.00;33.50;;;;;;5054040;28;20052;-78
2024/03/27 09:49:40;;;;;;;7.07;0.50;;;24.90;32.00;;;;;;5052866;28;20385;-79
2024/03/27 09:52:12;;;;;;;3.35;0.50;;;25.60;32.20;;;;;;5055069;28;20052;-78
2024/03/27 09:54:38;;;;;;;3.80;0.38;;;26.70;29.90;;;;;;5035791;28;20052;-79
2024/03/27 09:57:09;;;;;;;1.27;0.35;;;27.70;29.10;;;;;;5053962;28;20454;-79
2024/03/27 09:59:34;;;;;;;1.65;0.50;;;28.60;27.70;;;;;;5054485;28;20053;-78
2024/03/27 10:02:04;;;;;;;2.25;0.40;;;29.40;27.30;;;;;;5054973;28;20261;-79
2024/03/27 10:04:30;;;;;;;2.08;0.43;;;29.90;26.20;;;;;;5056597;28;20469;-79
2024/03/27 10:06:56;;;;;;;2.70;0.50;;;30.20;26.10;;;;;;5034760;28;20457;-79
2024/03/27 10:09:22;;;;;;;2.20;0.32;;;30.80;25.40;;;;;;5035136;28;20049;-79
2024/03/27 10:11:49;;;;;;;2.08;0.43;;;31.20;24.90;;;;;;5035697;28;20062;-79
2024/03/27 10:14:15;;;;;;;2.53;0.30;;;31.10;24.80;;;;;;5033185;28;20083;-79
2024/03/27 10:16:43;;;;;;;1.10;0.22;;;30.90;24.40;;;;;;5037135;28;20064;-79
2024/03/27 10:19:11;;;;;;;1.05;0.22;;;30.80;24.80;;;;;;5035200;28;20059;-79
2024/03/27 10:21:39;;;;;;;2.38;0.52;;;31.10;25.20;;;;;;5038141;28;20060;-79
2024/03/27 10:24:09;;;;;;;1.92;0.57;;;31.10;24.60;;;;;;5038512;28;20380;-79
2024/03/27 10:26:35;;;;;;;2.30;0.45;;;30.70;24.90;;;;;;5035513;28;20484;-79
2024/03/27 10:29:01;;;;;;;2.88;0.22;;;30.60;25.40;;;;;;5054517;28;20044;-79
2024/03/27 10:31:30;;;;;;;5.03;0.40;;;30.90;25.30;;;;;;5054205;28;20063;-79
2024/03/27 10:33:56;;;;;;;1.73;0.20;;;31.50;24.70;;;;;;5048224;28;20045;-79
2024/03/27 10:36:26;;;;;;;0.82;0.32;;;32.20;24.70;;;;;;5036250;28;20045;-79
2024/03/27 10:39:07;;;;;;;2.60;0.38;;;32.70;23.30;;;;;;5066706;28;20052;-79
2024/03/27 10:41:34;;;;;;;0.20;0.10;;;32.00;23.80;;;;;;5037865;28;20551;-78
2024/03/27 10:44:04;;;;;;;1.77;0.20;;;32.50;23.90;;;;;;5037387;28;20488;-79
2024/03/27 10:46:34;;;;;;;1.95;0.10;;;33.70;23.00;;;;;;5034051;28;20468;-80
2024/03/27 10:49:02;;;;;;;1.98;0.30;;;35.00;21.70;;;;;;5053984;28;20045;-79
2024/03/27 10:51:30;;;;;;;0.85;0.30;;;35.40;21.50;;;;;;5054813;28;20041;-80
2024/03/27 10:53:59;;;;;;;3.08;0.20;;;36.50;20.70;;;;;;5035842;28;20060;-79
2024/03/27 10:56:30;;;;;;;3.33;0.22;;;36.50;20.20;;;;;;5035117;28;20056;-80
2024/03/27 10:58:56;;;;;;;1.23;0.20;;;37.20;19.90;;;;;;5036982;28;20473;-79
2024/03/27 11:01:24;;;;;;;0.52;0.20;;;37.10;20.30;;;;;;5053741;28;20109;-80
2024/03/27 11:03:52;;;;;;;0.55;0.20;;;37.80;19.30;;;;;;5052379;28;20045;-80
2024/03/27 11:06:19;;;;;;;2.72;0.60;;;38.60;18.70;;;;;;5037366;28;20595;-80
2024/03/27 11:08:47;;;;;;;1.70;0.30;;;38.10;18.60;;;;;;5037033;28;20499;-80
2024/03/27 11:11:17;;;;;;;2.72;0.45;;;38.50;19.10;;;;;;5051371;28;20045;-80
2024/03/27 11:13:46;;;;;;;2.60;0.30;;;39.70;18.70;;;;;;5054034;28;20377;-80
2024/03/27 11:16:15;;;;;;;0.82;0.22;;;39.40;18.00;;;;;;5037205;28;20465;-79
2024/03/27 11:18:47;;;;;;;1.75;0.40;;;39.30;17.90;;;;;;5036798;28;20052;-80
2024/03/27 11:21:13;;;;;;;0.35;0.00;;;40.00;18.10;;;;;;5053908;28;20052;-80
2024/03/27 11:23:41;;;;;;;2.10;0.20;;;40.90;16.80;;;;;;5037363;28;20070;-80
2024/03/27 11:26:10;;;;;;;2.40;0.30;;;41.60;17.70;;;;;;5037620;28;20056;-80
2024/03/27 11:28:36;;;;;;;4.20;0.30;;;42.60;16.80;;;;;;5052355;28;20771;-80
2024/03/27 11:31:05;;;;;;;1.30;0.15;;;43.30;16.60;;;;;;5037195;28;20139;-78
2024/03/27 11:33:33;;;;;;;0.45;0.10;;;43.90;16.10;;;;;;5037151;28;20602;-81
2024/03/27 11:35:59;;;;;;;1.23;0.30;;;44.70;15.20;;;;;;5036473;28;20063;-80
2024/03/27 11:38:25;;;;;;;0.70;0.20;;;44.80;15.20;;;;;;5021225;28;20521;-78
2024/03/27 11:40:54;;;;;;;3.40;0.17;;;45.30;15.40;;;;;;5034271;28;20391;-80
2024/03/27 11:43:20;;;;;;;0.45;0.20;;;45.10;15.00;;;;;;5046112;28;20800;-79
2024/03/27 11:45:51;;;;;;;0.45;0.10;;;44.80;15.00;;;;;;5053467;28;20118;-79
2024/03/27 11:48:20;;;;;;;0.80;0.20;;;44.00;15.90;;;;;;5043853;28;20104;-80
2024/03/27 11:50:48;;;;;;;1.00;0.30;;;43.50;15.00;;;;;;5039084;28;20058;-79
2024/03/27 11:53:15;;;;;;;1.55;0.20;;;41.20;15.90;;;;;;5039982;28;20314;-79
2024/03/27 11:55:42;;;;;;;0.50;0.20;;;39.30;17.20;;;;;;5037277;28;20052;-79
2024/03/27 11:58:08;;;;;;;0.55;0.10;;;38.20;18.10;;;;;;5053768;28;20373;-79
2024/03/27 12:00:34;;;;;;;1.60;0.30;;;38.00;17.80;;;;;;5037029;28;20052;-79
2024/03/27 12:03:05;;;;;;;0.45;0.20;;;36.60;18.70;;;;;;5054015;28;20419;-79
2024/03/27 12:05:31;;;;;;;1.15;0.10;;;35.10;19.80;;;;;;5053203;28;20064;-79
2024/03/27 12:07:59;;;;;;;0.75;0.20;;;32.70;21.60;;;;;;5054254;28;20457;-79
2024/03/27 12:10:29;;;;;;;0.85;0.10;;;30.70;23.30;;;;;;5036548;28;20169;-79
2024/03/27 12:12:55;;;;;;;0.20;0.10;;;30.20;24.30;;;;;;5027060;28;20055;-79
2024/03/27 12:15:21;;;;;;;2.45;0.30;;;29.80;24.60;;;;;;5038875;28;20048;-82
2024/03/27 12:17:56;;;;;;;0.43;0.10;;;29.40;24.60;;;;;;5040230;28;20048;-81
2024/03/27 12:20:23;;;;;;;0.65;0.25;;;28.60;25.00;;;;;;5076011;28;20057;-81
2024/03/27 12:22:49;;;;;;;1.30;0.10;;;28.10;25.90;;;;;;5039955;28;20049;-81
2024/03/27 12:25:15;;;;;;;1.98;0.10;;;27.00;26.50;;;;;;5036132;28;20049;-81
2024/03/27 12:27:41;;;;;;;0.57;0.13;;;26.00;28.00;;;;;;5057089;28;20052;-81
2024/03/27 12:30:16;;;;;;;0.45;0.20;;;25.00;29.20;;;;;;5056414;28;20040;-81
2024/03/27 12:32:42;;;;;;;3.25;0.32;;;24.50;30.00;;;;;;5055788;28;20122;-81
2024/03/27 12:35:08;;;;;;;1.92;0.28;;;24.10;30.80;;;;;;5030236;28;20111;-81
2024/03/27 12:37:37;;;;;;;0.40;0.10;;;23.50;31.80;;;;;;5056751;28;20181;-81
2024/03/27 12:40:04;;;;;;;2.63;0.20;;;22.80;32.40;;;;;;5039013;28;20057;-81
2024/03/27 12:42:30;;;;;;;0.28;0.15;;;22.60;33.40;;;;;;5057447;28;20063;-81
2024/03/27 12:44:55;;;;;;;2.75;0.32;;;22.20;33.60;;;;;;5062738;28;20060;-81
2024/03/27 12:47:21;;;;;;;0.77;0.20;;;22.10;34.30;;;;;;5040496;28;20095;-82
2024/03/27 12:49:47;;;;;;;1.92;0.10;;;22.00;34.60;;;;;;5056382;28;20595;-81